Time;durP1;ratioP1;P1;durP2;ratioP2;P2;SDS_P1;SDS_P2;PMS_P1;PMS_P2;Temp;Humidity;BMP_temperature;BMP_pressure;BME280_temperature;BME280_humidity;BME280_pressure;Samples;Min_cycle;Max_cycle;Signal;HPM_P1;HPM_P2
2023/04/06 00:00:23;;;;;;;;;;;1.80;91.50;;;;;;4963252;29;20399;-83
2023/04/06 00:02:51;;;;;;;;;;;1.80;91.50;;;;;;4951823;29;19922;-85
2023/04/06 00:05:20;;;;;;;;;;;1.80;91.70;;;;;;4952851;29;19930;-85
2023/04/06 00:07:47;;;;;;;;;;;1.70;91.80;;;;;;4949980;29;19922;-85
2023/04/06 00:10:14;;;;;;;;;;;1.70;92.00;;;;;;4956480;29;19937;-84
2023/04/06 00:12:43;;;;;;;;;;;1.70;92.20;;;;;;4943457;29;19927;-84
2023/04/06 00:15:10;;;;;;;;;;;1.60;92.20;;;;;;4940427;29;19922;-83
2023/04/06 00:17:37;;;;;;;;;;;1.60;92.40;;;;;;4940075;29;19945;-84
2023/04/06 00:20:05;;;;;;;;;;;1.70;92.80;;;;;;4938613;29;19934;-83
2023/04/06 00:22:33;;;;;;;;;;;1.70;92.80;;;;;;4937771;29;19930;-83
2023/04/06 00:25:00;;;;;;;;;;;1.60;92.90;;;;;;4963135;28;19926;-85
2023/04/06 00:27:27;;;;;;;;;;;1.60;92.90;;;;;;4942571;29;19923;-84
2023/04/06 00:29:54;;;;;;;;;;;1.60;92.90;;;;;;4940208;29;19927;-84
2023/04/06 00:32:20;;;;;;;;;;;1.60;93.20;;;;;;4953408;29;19933;-83
2023/04/06 00:34:47;;;;;;;;;;;1.50;93.30;;;;;;4937994;29;19938;-84
2023/04/06 00:37:15;;;;;;;;;;;1.50;93.40;;;;;;4949408;29;19953;-86
2023/04/06 00:39:44;;;;;;;;;;;1.50;93.70;;;;;;4967517;28;19954;-84
2023/04/06 00:42:13;;;;;;;;;;;1.60;93.80;;;;;;4926603;29;20021;-84
2023/04/06 00:44:40;;;;;;;;;;;1.60;94.00;;;;;;4951676;29;19926;-85
2023/04/06 00:47:07;;;;;;;;;;;1.50;94.00;;;;;;4937229;29;19926;-83
2023/04/06 00:49:34;;;;;;;;;;;1.50;94.10;;;;;;4935851;29;20041;-85
2023/04/06 00:52:01;;;;;;;;;;;1.50;94.30;;;;;;4936857;29;19923;-85
2023/04/06 00:54:29;;;;;;;;;;;1.50;94.50;;;;;;4933604;29;20492;-84
2023/04/06 00:56:58;;;;;;;;;;;1.60;94.60;;;;;;4934837;29;19923;-86
2023/04/06 00:59:28;;;;;;;;;;;1.50;94.60;;;;;;4934255;29;19930;-83
2023/04/06 01:01:56;;;;;;;;;;;1.40;94.70;;;;;;4937037;29;19933;-84
2023/04/06 01:04:35;;;;;;;;;;;1.40;95.10;;;;;;4958052;28;20402;-84
2023/04/06 01:07:04;;;;;;;;;;;1.30;94.80;;;;;;4968628;28;19929;-84
2023/04/06 01:09:40;;;;;;;;;;;1.30;94.90;;;;;;4936874;29;19923;-83
2023/04/06 01:12:15;;;;;;;;;;;1.20;95.00;;;;;;4938569;29;19926;-84
2023/04/06 01:14:42;;;;;;;;;;;1.20;95.30;;;;;;4943725;29;20059;-85
2023/04/06 01:17:09;;;;;;;;;;;1.20;95.60;;;;;;4947266;29;19930;-84
2023/04/06 01:19:37;;;;;;;;;;;1.20;95.70;;;;;;4946220;29;19923;-85
2023/04/06 01:22:05;;;;;;;;;;;1.20;95.90;;;;;;4936871;29;19933;-85
2023/04/06 01:24:33;;;;;;;;;;;1.20;96.00;;;;;;4946445;29;20534;-84
2023/04/06 01:27:00;;;;;;;;;;;1.10;96.10;;;;;;4941191;28;20036;-85
2023/04/06 01:29:40;;;;;;;;;;;1.10;96.20;;;;;;4919946;29;19978;-85
2023/04/06 01:32:09;;;;;;;;;;;1.10;96.30;;;;;;4929963;29;19934;-85
2023/04/06 01:34:45;;;;;;;;;;;1.10;96.50;;;;;;4926863;29;19926;-86
2023/04/06 01:37:12;;;;;;;;;;;1.00;96.50;;;;;;4934752;29;19929;-83
2023/04/06 01:39:40;;;;;;;;;;;1.00;96.50;;;;;;4935358;29;19934;-83
2023/04/06 01:42:08;;;;;;;;;;;0.90;96.60;;;;;;4935951;29;20349;-82
2023/04/06 01:44:38;;;;;;;;;;;0.90;96.90;;;;;;4935282;29;19930;-84
2023/04/06 01:47:10;;;;;;;;;;;0.80;97.10;;;;;;4941177;29;19937;-84
2023/04/06 01:49:37;;;;;;;;;;;0.80;97.30;;;;;;4949205;28;19926;-82
2023/04/06 01:52:04;;;;;;;;;;;0.80;97.50;;;;;;4955720;29;19929;-82
2023/04/06 01:54:31;;;;;;;;;;;0.80;97.80;;;;;;4936928;29;20401;-82
2023/04/06 01:57:25;;;;;;;;;;;0.80;97.90;;;;;;4939241;29;19927;-83
2023/04/06 02:00:00;;;;;;;;;;;0.80;98.10;;;;;;4940824;29;19923;-82
2023/04/06 02:02:44;;;;;;;;;;;0.80;98.30;;;;;;4945967;29;19951;-85
2023/04/06 02:05:20;;;;;;;;;;;0.90;98.60;;;;;;4938011;29;20688;-84
2023/04/06 02:07:48;;;;;;;;;;;0.90;99.10;;;;;;4936833;29;20306;-83
2023/04/06 02:10:19;;;;;;;;;;;0.90;99.00;;;;;;4936133;29;19927;-83
2023/04/06 02:12:50;;;;;;;;;;;0.90;99.20;;;;;;4941697;29;19997;-83
2023/04/06 02:15:23;;;;;;;;;;;0.90;99.30;;;;;;4935248;29;20042;-83
2023/04/06 02:17:49;;;;;;;;;;;0.90;99.40;;;;;;4930965;29;19934;-85
2023/04/06 02:20:16;;;;;;;;;;;0.90;99.50;;;;;;4940262;29;19930;-85
2023/04/06 02:22:43;;;;;;;;;;;0.90;99.70;;;;;;4946638;29;19933;-84
2023/04/06 02:25:10;;;;;;;;;;;0.80;99.90;;;;;;4945517;29;20005;-83
2023/04/06 02:27:37;;;;;;;;;;;0.80;99.90;;;;;;4944193;29;19927;-83
2023/04/06 02:30:06;;;;;;;;;;;0.80;99.90;;;;;;4931445;29;19926;-83
2023/04/06 02:32:32;;;;;;;;;;;0.80;99.90;;;;;;4931239;29;19930;-84
2023/04/06 02:35:00;;;;;;;;;;;0.80;99.90;;;;;;4967980;29;19910;-81
2023/04/06 02:37:27;;;;;;;;;;;0.80;99.90;;;;;;4954429;29;19937;-83
2023/04/06 02:39:53;;;;;;;;;;;0.90;99.90;;;;;;4933279;29;19933;-84
2023/04/06 02:42:20;;;;;;;;;;;0.90;99.90;;;;;;4933311;29;19923;-85
2023/04/06 02:44:49;;;;;;;;;;;0.90;99.90;;;;;;4945225;29;20014;-84
2023/04/06 02:47:18;;;;;;;;;;;0.90;99.90;;;;;;4954788;28;19927;-83
2023/04/06 02:49:48;;;;;;;;;;;0.90;99.90;;;;;;4928375;29;19954;-83
2023/04/06 02:52:18;;;;;;;;;;;0.90;99.90;;;;;;4930251;29;19926;-84
2023/04/06 02:54:45;;;;;;;;;;;0.90;99.90;;;;;;4924672;29;19934;-84
2023/04/06 02:57:12;;;;;;;;;;;0.90;99.90;;;;;;4935550;29;20411;-84
2023/04/06 02:59:43;;;;;;;;;;;0.80;99.90;;;;;;4931079;29;19923;-84
2023/04/06 03:02:19;;;;;;;;;;;0.80;99.90;;;;;;4933457;29;20308;-84
2023/04/06 03:04:46;;;;;;;;;;;0.80;99.90;;;;;;4933159;29;19938;-84
2023/04/06 03:07:22;;;;;;;;;;;0.70;99.90;;;;;;4939923;29;19926;-84
2023/04/06 03:09:49;;;;;;;;;;;0.70;99.90;;;;;;4947918;28;19922;-82
2023/04/06 03:12:18;;;;;;;;;;;0.70;99.90;;;;;;4932044;29;19993;-85
2023/04/06 03:15:11;;;;;;;;;;;0.70;99.90;;;;;;4933772;29;19926;-84
2023/04/06 03:17:42;;;;;;;;;;;0.60;99.90;;;;;;4929269;29;20416;-84
2023/04/06 03:20:15;;;;;;;;;;;0.60;99.90;;;;;;4931288;29;20026;-84
2023/04/06 03:22:42;;;;;;;;;;;0.50;99.90;;;;;;4946393;29;19927;-84
2023/04/06 03:25:12;;;;;;;;;;;0.50;99.90;;;;;;4931684;29;20017;-84
2023/04/06 03:27:41;;;;;;;;;;;0.50;99.90;;;;;;4930252;29;20010;-84
2023/04/06 03:30:12;;;;;;;;;;;0.60;99.90;;;;;;4947829;28;19962;-83
2023/04/06 03:32:39;;;;;;;;;;;0.50;99.90;;;;;;4951842;29;19923;-85
2023/04/06 03:35:07;;;;;;;;;;;0.50;99.90;;;;;;4936618;29;19986;-84
2023/04/06 03:37:34;;;;;;;;;;;0.50;99.90;;;;;;4949725;29;19926;-82
2023/04/06 03:40:03;;;;;;;;;;;0.50;99.90;;;;;;4954546;29;19950;-84
2023/04/06 03:42:30;;;;;;;;;;;0.50;99.90;;;;;;4941544;29;19926;-84
2023/04/06 03:45:02;;;;;;;;;;;0.60;99.90;;;;;;4953455;29;19978;-83
2023/04/06 03:47:29;;;;;;;;;;;0.60;99.90;;;;;;4955185;29;19982;-84
2023/04/06 03:50:00;;;;;;;;;;;0.60;99.90;;;;;;4944653;29;19922;-84
2023/04/06 03:52:29;;;;;;;;;;;0.60;99.90;;;;;;4936610;29;19930;-84
2023/04/06 03:54:55;;;;;;;;;;;0.60;99.90;;;;;;4930299;29;19923;-84
2023/04/06 03:57:22;;;;;;;;;;;0.50;99.90;;;;;;4924431;29;19930;-83
2023/04/06 03:59:49;;;;;;;;;;;0.50;99.90;;;;;;4941920;29;19930;-84
2023/04/06 04:02:15;;;;;;;;;;;0.50;99.90;;;;;;4924234;29;19926;-84
2023/04/06 04:04:42;;;;;;;;;;;0.50;99.90;;;;;;4944723;29;19927;-83
2023/04/06 04:07:09;;;;;;;;;;;0.50;99.90;;;;;;4935895;29;20017;-84
2023/04/06 04:09:37;;;;;;;;;;;0.50;99.90;;;;;;4934713;29;19926;-83
2023/04/06 04:12:04;;;;;;;;;;;0.40;99.90;;;;;;4947117;29;19923;-83
2023/04/06 04:14:32;;;;;;;;;;;0.40;99.90;;;;;;4934433;29;19923;-84
2023/04/06 04:16:59;;;;;;;;;;;0.40;99.90;;;;;;4935899;29;19923;-82
2023/04/06 04:19:25;;;;;;;;;;;0.40;99.90;;;;;;4935555;29;19934;-84
2023/04/06 04:21:53;;;;;;;;;;;0.40;99.90;;;;;;4937611;29;19926;-84
2023/04/06 04:24:27;;;;;;;;;;;0.40;99.90;;;;;;4932022;29;19954;-84
2023/04/06 04:26:55;;;;;;;;;;;0.40;99.90;;;;;;4932952;29;19927;-83
2023/04/06 04:29:22;;;;;;;;;;;0.40;99.90;;;;;;4940105;29;19923;-84
2023/04/06 04:31:50;;;;;;;;;;;0.50;99.90;;;;;;4940354;29;19923;-83
2023/04/06 04:34:19;;;;;;;;;;;0.40;99.90;;;;;;4943495;29;19931;-84
2023/04/06 04:36:46;;;;;;;;;;;0.50;99.90;;;;;;4941921;29;19963;-83
2023/04/06 04:39:21;;;;;;;;;;;1.30;99.90;;;;;;4937111;29;19923;-84
2023/04/06 04:41:57;;;;;;;;;;;0.50;99.90;;;;;;4940409;29;19927;-83
2023/04/06 04:44:24;;;;;;;;;;;0.50;99.90;;;;;;4946002;29;20381;-84
2023/04/06 04:46:51;;;;;;;;;;;0.50;99.90;;;;;;4972637;28;19926;-84
2023/04/06 04:49:20;;;;;;;;;;;0.50;99.90;;;;;;4957816;28;19985;-84
2023/04/06 04:51:52;;;;;;;;;;;0.60;99.90;;;;;;4952899;29;19989;-84
2023/04/06 04:54:24;;;;;;;;;;;0.60;99.90;;;;;;4940203;29;19926;-82
2023/04/06 04:56:52;;;;;;;;;;;0.90;99.90;;;;;;4943428;29;20021;-82
2023/04/06 04:59:37;;;;;;;;;;;0.60;99.90;;;;;;4954122;29;19946;-83
2023/04/06 05:02:12;;;;;;;;;;;0.70;99.90;;;;;;4948044;29;20013;-85
2023/04/06 05:04:52;;;;;;;;;;;0.70;99.90;;;;;;4946847;29;19950;-85
2023/04/06 05:07:23;;;;;;;;;;;0.80;99.90;;;;;;4961007;29;19923;-83
2023/04/06 05:09:51;;;;;;;;;;;0.90;99.90;;;;;;4944088;29;19923;-85
2023/04/06 05:12:20;;;;;;;;;;;0.90;99.90;;;;;;4975601;28;19922;-84
2023/04/06 05:14:56;;;;;;;;;;;1.00;99.90;;;;;;4940191;29;20390;-84
2023/04/06 05:17:24;;;;;;;;;;;1.00;99.90;;;;;;4939644;29;19927;-84
2023/04/06 05:19:51;;;;;;;;;;;1.10;99.90;;;;;;4935798;29;19961;-83
2023/04/06 05:22:23;;;;;;;;;;;1.20;99.90;;;;;;4931590;29;19990;-83
2023/04/06 05:24:58;;;;;;;;;;;1.40;99.90;;;;;;4957684;28;19935;-84
2023/04/06 05:27:25;;;;;;;;;;;1.40;99.90;;;;;;4941355;29;19926;-83
2023/04/06 05:29:57;;;;;;;;;;;1.60;99.90;;;;;;4943418;29;19950;-83
2023/04/06 05:32:26;;;;;;;;;;;1.70;99.90;;;;;;4951909;29;19934;-83
2023/04/06 05:34:55;;;;;;;;;;;1.80;99.90;;;;;;4964242;28;19927;-84
2023/04/06 05:37:22;;;;;;;;;;;2.00;99.90;;;;;;4945407;29;19990;-83
2023/04/06 05:39:49;;;;;;;;;;;2.10;99.90;;;;;;4961753;28;19958;-85
2023/04/06 05:42:16;;;;;;;;;;;2.30;99.90;;;;;;4948002;28;19927;-85
2023/04/06 05:44:54;;;;;;;;;;;2.80;99.90;;;;;;4963069;28;19926;-87
2023/04/06 05:47:22;;;;;;;;;;;3.60;99.90;;;;;;4944829;29;19927;-83
2023/04/06 05:49:56;;;;;;;;;;;4.30;99.90;;;;;;4942287;29;19934;-83
2023/04/06 05:52:32;;;;;;;;;;;5.10;99.90;;;;;;4937423;29;19933;-84
2023/04/06 05:54:59;;;;;;;;;;;5.90;99.90;;;;;;4947381;29;19996;-84
2023/04/06 05:57:26;;;;;;;;;;;6.60;99.90;;;;;;4972329;28;19933;-84
2023/04/06 05:59:55;;;;;;;;;;;7.40;99.90;;;;;;4938591;29;19974;-84
2023/04/06 06:02:24;;;;;;;;;;;8.10;99.90;;;;;;4954600;29;20009;-84
2023/04/06 06:04:53;;;;;;;;;;;8.90;99.90;;;;;;4952379;29;19926;-84
2023/04/06 06:07:20;;;;;;;;;;;9.50;99.90;;;;;;4942525;29;19922;-86
2023/04/06 06:09:58;;;;;;;;;;;10.10;99.90;;;;;;4937690;29;19927;-84
2023/04/06 06:12:30;;;;;;;;;;;10.50;99.90;;;;;;4941450;29;19929;-84
2023/04/06 06:14:58;;;;;;;;;;;11.10;99.90;;;;;;4941500;29;20377;-85
2023/04/06 06:17:28;;;;;;;;;;;11.60;99.90;;;;;;4941072;29;19926;-84
2023/04/06 06:19:56;;;;;;;;;;;12.20;99.90;;;;;;4939051;29;19938;-84
2023/04/06 06:22:22;;;;;;;;;;;12.40;99.90;;;;;;4951790;29;20554;-84
2023/04/06 06:24:50;;;;;;;;;;;12.70;99.90;;;;;;4955124;29;19974;-87
2023/04/06 06:27:20;;;;;;;;;;;13.10;99.90;;;;;;4936294;29;19927;-84
2023/04/06 06:29:47;;;;;;;;;;;13.60;99.90;;;;;;4934384;29;19927;-84
2023/04/06 06:32:14;;;;;;;;;;;14.10;98.30;;;;;;4936815;29;19927;-84
2023/04/06 06:34:43;;;;;;;;;;;14.60;97.10;;;;;;4939613;29;19927;-83
2023/04/06 06:37:11;;;;;;;;;;;15.10;96.80;;;;;;4939817;29;19926;-83
2023/04/06 06:39:39;;;;;;;;;;;15.50;95.80;;;;;;4939864;29;19927;-83
2023/04/06 06:42:06;;;;;;;;;;;16.10;94.00;;;;;;4942069;29;19923;-83
2023/04/06 06:44:59;;;;;;;;;;;16.70;93.70;;;;;;4925604;29;19938;-84
2023/04/06 06:47:26;;;;;;;;;;;17.30;93.60;;;;;;4937209;29;19976;-85
2023/04/06 06:49:54;;;;;;;;;;;17.60;90.50;;;;;;4939144;28;19926;-83
2023/04/06 06:52:22;;;;;;;;;;;17.80;90.00;;;;;;4930944;29;19926;-83
2023/04/06 06:54:49;;;;;;;;;;;18.10;87.80;;;;;;4934209;29;19931;-83
2023/04/06 06:57:17;;;;;;;;;;;18.40;85.70;;;;;;4968369;28;20214;-84
2023/04/06 06:59:44;;;;;;;;;;;18.70;85.80;;;;;;4936485;29;19927;-85
2023/04/06 07:02:11;;;;;;;;;;;18.80;85.50;;;;;;4936917;29;19927;-87
2023/04/06 07:04:38;;;;;;;;;;;19.00;85.00;;;;;;4952606;28;20484;-89
2023/04/06 07:07:06;;;;;;;;;;;19.40;83.60;;;;;;4937698;29;20369;-85
2023/04/06 07:09:34;;;;;;;;;;;19.70;81.70;;;;;;4938140;29;19915;-85
2023/04/06 07:12:00;;;;;;;;;;;20.00;81.00;;;;;;4968823;28;19931;-85
2023/04/06 07:14:33;;;;;;;;;;;20.40;79.00;;;;;;4946716;29;19934;-85
2023/04/06 07:16:59;;;;;;;;;;;20.60;80.00;;;;;;4945259;29;19930;-83
2023/04/06 07:19:26;;;;;;;;;;;20.90;78.80;;;;;;4951552;29;19910;-84
2023/04/06 07:21:53;;;;;;;;;;;21.30;78.40;;;;;;4961272;28;19971;-86
2023/04/06 07:24:21;;;;;;;;;;;21.70;78.70;;;;;;4943599;29;20037;-85
2023/04/06 07:26:47;;;;;;;;;;;22.20;78.20;;;;;;4945472;28;19934;-86
2023/04/06 07:29:14;;;;;;;;;;;22.50;74.80;;;;;;4937898;29;20017;-86
2023/04/06 07:32:08;;;;;;;;;;;22.60;73.60;;;;;;4935937;29;19922;-85
2023/04/06 07:34:35;;;;;;;;;;;22.80;73.40;;;;;;4934379;29;20316;-83
2023/04/06 07:37:02;;;;;;;;;;;23.00;73.10;;;;;;4936061;29;19948;-84
2023/04/06 07:39:31;;;;;;;;;;;21.90;69.70;;;;;;5211373;23;19927;-84
2023/04/06 07:41:58;;;;;;;;;;;20.50;68.40;;;;;;4944893;29;19986;-84
2023/04/06 07:44:25;;;;;;;;;;;19.30;68.60;;;;;;4939456;29;19922;-84
2023/04/06 07:46:53;;;;;;;;;;;18.70;69.70;;;;;;4950516;29;20080;-83
2023/04/06 07:49:23;;;;;;;;;;;19.10;72.00;;;;;;4966137;28;19922;-84
2023/04/06 07:51:50;;;;;;;;;;;19.70;71.70;;;;;;4949466;29;19954;-83
2023/04/06 07:54:17;;;;;;;;;;;20.10;72.30;;;;;;4947481;29;20336;-84
2023/04/06 07:56:48;;;;;;;;;;;20.70;71.60;;;;;;4943512;29;20313;-84
2023/04/06 07:59:15;;;;;;;;;;;21.30;72.00;;;;;;4957393;28;20393;-84
2023/04/06 08:01:41;;;;;;;;;;;21.70;69.50;;;;;;4960536;28;19950;-84
2023/04/06 08:04:08;;;;;;;;;;;22.00;69.60;;;;;;4957262;29;19932;-84
2023/04/06 08:06:36;;;;;;;;;;;22.10;68.30;;;;;;4946785;28;19922;-86
2023/04/06 08:09:03;;;;;;;;;;;22.20;68.00;;;;;;4970625;28;19926;-84
2023/04/06 08:11:30;;;;;;;;;;;22.30;66.40;;;;;;4959015;28;19929;-85
2023/04/06 08:13:58;;;;;;;;;;;22.50;68.60;;;;;;4956909;29;19959;-84
2023/04/06 08:16:25;;;;;;;;;;;22.40;66.10;;;;;;4957773;28;20542;-84
2023/04/06 08:18:52;;;;;;;;;;;22.20;65.50;;;;;;4958817;28;19932;-85
2023/04/06 08:21:19;;;;;;;;;;;22.00;64.30;;;;;;4944820;29;19926;-85
2023/04/06 08:23:46;;;;;;;;;;;21.60;63.70;;;;;;4961319;29;19926;-83
2023/04/06 08:26:13;;;;;;;;;;;21.30;65.30;;;;;;4941262;29;19926;-83
2023/04/06 08:28:40;;;;;;;;;;;20.90;65.30;;;;;;4957827;28;19933;-83
2023/04/06 08:31:09;;;;;;;;;;;20.70;65.00;;;;;;4960523;29;19958;-84
2023/04/06 08:33:38;;;;;;;;;;;20.50;65.00;;;;;;4970307;28;19928;-84
2023/04/06 08:36:09;;;;;;;;;;;20.40;64.30;;;;;;4949336;29;19966;-84
2023/04/06 08:38:36;;;;;;;;;;;20.20;64.00;;;;;;4967056;28;19926;-84
2023/04/06 08:41:07;;;;;;;;;;;19.80;64.50;;;;;;4951268;29;19966;-84
2023/04/06 08:43:36;;;;;;;;;;;19.50;64.50;;;;;;4967206;29;19954;-84
2023/04/06 08:46:03;;;;;;;;;;;19.10;64.30;;;;;;4964494;29;19954;-83
2023/04/06 08:48:32;;;;;;;;;;;19.00;65.70;;;;;;4964574;28;19926;-83
2023/04/06 08:51:00;;;;;;;;;;;18.80;66.30;;;;;;4950746;29;20037;-84
2023/04/06 08:53:27;;;;;;;;;;;18.50;66.60;;;;;;4967468;28;19922;-83
2023/04/06 08:55:54;;;;;;;;;;;18.30;66.60;;;;;;4966782;29;19934;-84
2023/04/06 08:58:22;;;;;;;;;;;18.30;65.90;;;;;;4964070;28;19923;-83
2023/04/06 09:00:50;;;;;;;;;;;18.30;66.70;;;;;;4948061;29;19936;-82
2023/04/06 09:03:17;;;;;;;;;;;18.40;66.70;;;;;;4961562;28;19951;-84
2023/04/06 09:05:46;;;;;;;;;;;18.60;68.70;;;;;;4962315;28;19926;-84
2023/04/06 09:08:13;;;;;;;;;;;18.80;67.30;;;;;;4948182;28;19922;-85
2023/04/06 09:10:41;;;;;;;;;;;18.80;66.40;;;;;;4947192;29;20063;-85
2023/04/06 09:13:08;;;;;;;;;;;18.70;65.20;;;;;;4940259;29;19934;-85
2023/04/06 09:15:36;;;;;;;;;;;18.50;65.90;;;;;;4956751;29;19922;-85
2023/04/06 09:18:02;;;;;;;;;;;18.40;66.00;;;;;;4948097;29;19929;-85
2023/04/06 09:20:29;;;;;;;;;;;18.30;65.40;;;;;;4964570;28;19926;-85
2023/04/06 09:22:57;;;;;;;;;;;18.20;66.20;;;;;;4946774;29;19933;-84
2023/04/06 09:25:26;;;;;;;;;;;18.10;65.40;;;;;;4942344;29;19929;-84
2023/04/06 09:28:00;;;;;;;;;;;18.10;65.20;;;;;;4961033;28;19922;-87
2023/04/06 09:30:27;;;;;;;;;;;17.40;65.30;;;;;;4931090;29;20401;-85
2023/04/06 09:32:54;;;;;;;;;;;17.10;65.50;;;;;;4940326;29;20316;-87
2023/04/06 09:35:21;;;;;;;;;;;17.00;65.70;;;;;;4941889;29;20567;-86
2023/04/06 09:37:50;;;;;;;;;;;17.00;65.70;;;;;;4963021;28;19925;-88
2023/04/06 09:40:19;;;;;;;;;;;16.90;66.10;;;;;;4942854;28;19927;-88
2023/04/06 09:42:47;;;;;;;;;;;16.80;65.80;;;;;;4943349;29;20021;-89
2023/04/06 09:45:15;;;;;;;;;;;16.80;66.30;;;;;;4948198;29;19926;-87
2023/04/06 09:47:43;;;;;;;;;;;16.90;66.00;;;;;;4948963;29;20036;-89
2023/04/06 09:50:12;;;;;;;;;;;16.90;66.40;;;;;;4957808;28;19953;-87
2023/04/06 09:52:41;;;;;;;;;;;17.00;66.20;;;;;;4960996;28;19926;-87
2023/04/06 09:55:08;;;;;;;;;;;17.00;66.30;;;;;;4959786;29;19923;-87
2023/04/06 09:57:42;;;;;;;;;;;17.20;66.40;;;;;;4942611;29;19953;-88
2023/04/06 10:00:11;;;;;;;;;;;17.30;65.80;;;;;;4974084;28;20396;-87
2023/04/06 10:02:42;;;;;;;;;;;17.20;66.20;;;;;;4945056;29;20435;-88
2023/04/06 10:05:10;;;;;;;;;;;17.30;66.60;;;;;;4960014;29;19926;-88
2023/04/06 10:07:38;;;;;;;;;;;17.30;66.60;;;;;;4963350;28;19933;-88
2023/04/06 10:10:05;;;;;;;;;;;17.40;66.70;;;;;;4941958;29;19932;-87
2023/04/06 10:12:35;;;;;;;;;;;17.50;66.50;;;;;;4941026;29;20025;-87
2023/04/06 10:15:03;;;;;;;;;;;16.70;66.00;;;;;;4937123;29;19969;-87
2023/04/06 10:17:33;;;;;;;;;;;17.60;67.20;;;;;;4939608;29;19926;-87
2023/04/06 10:20:03;;;;;;;;;;;17.70;67.50;;;;;;4938418;29;19969;-87
2023/04/06 10:22:33;;;;;;;;;;;17.90;67.50;;;;;;4957376;29;19930;-87
2023/04/06 10:25:00;;;;;;;;;;;17.80;67.30;;;;;;4955989;29;19922;-87
2023/04/06 10:27:30;;;;;;;;;;;17.60;66.90;;;;;;4937814;29;19926;-86
2023/04/06 10:30:03;;;;;;;;;;;17.60;67.90;;;;;;4936306;28;19933;-87
2023/04/06 10:32:37;;;;;;;;;;;17.70;68.70;;;;;;4958326;29;20004;-86
2023/04/06 10:35:07;;;;;;;;;;;17.80;68.60;;;;;;4941412;29;19930;-87
2023/04/06 10:37:47;;;;;;;;;;;17.80;68.50;;;;;;4940731;28;19926;-88
2023/04/06 10:40:18;;;;;;;;;;;17.80;68.00;;;;;;4967245;28;19911;-88
2023/04/06 10:42:47;;;;;;;;;;;17.70;68.40;;;;;;4959194;28;19978;-87
2023/04/06 10:45:22;;;;;;;;;;;17.60;68.60;;;;;;4944844;29;19932;-87
2023/04/06 10:47:53;;;;;;;;;;;17.20;68.40;;;;;;4975656;28;19941;-92
2023/04/06 10:50:27;;;;;;;;;;;17.70;69.20;;;;;;4959765;28;19965;-87
2023/04/06 10:53:00;;;;;;;;;;;17.80;69.20;;;;;;4951693;29;19928;-86
2023/04/06 10:55:27;;;;;;;;;;;18.00;69.30;;;;;;4947903;29;19938;-87
2023/04/06 10:57:54;;;;;;;;;;;18.10;69.00;;;;;;4959861;29;19933;-87
2023/04/06 11:00:23;;;;;;;;;;;18.10;68.90;;;;;;4964184;28;19942;-86
2023/04/06 11:02:50;;;;;;;;;;;18.10;69.20;;;;;;4957561;29;19973;-87
2023/04/06 11:05:18;;;;;;;;;;;18.10;70.10;;;;;;4946732;28;19945;-87
2023/04/06 11:07:45;;;;;;;;;;;18.10;69.70;;;;;;4961023;28;19929;-86
2023/04/06 11:10:12;;;;;;;;;;;18.20;69.70;;;;;;4948801;29;19937;-86
2023/04/06 11:12:38;;;;;;;;;;;18.10;69.60;;;;;;4945076;29;19933;-89
2023/04/06 11:15:06;;;;;;;;;;;18.10;69.90;;;;;;4961036;28;19922;-87
2023/04/06 11:17:37;;;;;;;;;;;18.20;70.10;;;;;;4936051;29;19926;-86
2023/04/06 11:20:05;;;;;;;;;;;18.30;70.30;;;;;;4941221;29;20112;-86
2023/04/06 11:22:32;;;;;;;;;;;18.30;70.30;;;;;;4958885;28;20404;-86
2023/04/06 11:25:05;;;;;;;;;;;18.40;70.50;;;;;;4957553;29;20005;-87
2023/04/06 11:27:32;;;;;;;;;;;18.50;70.90;;;;;;4942558;28;20317;-87
2023/04/06 11:29:59;;;;;;;;;;;18.60;70.70;;;;;;4954417;28;19936;-86
2023/04/06 11:32:26;;;;;;;;;;;18.50;70.20;;;;;;4941836;28;19926;-88
2023/04/06 11:34:54;;;;;;;;;;;18.40;70.50;;;;;;4957720;29;19928;-88
2023/04/06 11:37:23;;;;;;;;;;;18.30;70.60;;;;;;4968739;28;20292;-87
2023/04/06 11:39:51;;;;;;;;;;;18.10;70.90;;;;;;4958008;28;19973;-88
2023/04/06 11:42:22;;;;;;;;;;;18.10;71.50;;;;;;4940672;29;19975;-87
2023/04/06 11:44:51;;;;;;;;;;;18.00;71.70;;;;;;4952561;28;20635;-88
2023/04/06 11:47:22;;;;;;;;;;;18.00;71.80;;;;;;4938839;28;20189;-88
2023/04/06 11:49:50;;;;;;;;;;;17.90;72.30;;;;;;4942788;28;20033;-88
2023/04/06 11:52:19;;;;;;;;;;;17.80;72.50;;;;;;4957497;29;20462;-88
2023/04/06 11:54:46;;;;;;;;;;;17.70;72.70;;;;;;4955523;29;19933;-88
2023/04/06 11:57:13;;;;;;;;;;;17.60;73.10;;;;;;4961382;28;19922;-88
2023/04/06 11:59:40;;;;;;;;;;;17.60;73.40;;;;;;4957954;28;19929;-88
2023/04/06 12:02:07;;;;;;;;;;;17.60;73.80;;;;;;4977870;28;19960;-87
2023/04/06 12:04:34;;;;;;;;;;;17.70;74.00;;;;;;4943976;29;20414;-88
2023/04/06 12:07:03;;;;;;;;;;;17.80;74.10;;;;;;4944708;29;20297;-88
2023/04/06 12:09:31;;;;;;;;;;;17.90;74.50;;;;;;4962856;28;19956;-88
2023/04/06 12:12:07;;;;;;;;;;;17.90;74.20;;;;;;4962908;29;19926;-86
2023/04/06 12:14:34;;;;;;;;;;;17.80;74.30;;;;;;4954796;29;20004;-88
2023/04/06 12:17:01;;;;;;;;;;;17.70;74.10;;;;;;4942464;29;19954;-87
2023/04/06 12:19:28;;;;;;;;;;;17.70;74.10;;;;;;4956748;28;19927;-87
2023/04/06 12:21:56;;;;;;;;;;;17.60;74.40;;;;;;4939631;29;20369;-88
2023/04/06 12:24:23;;;;;;;;;;;17.70;74.90;;;;;;4957935;28;19926;-88
2023/04/06 12:26:51;;;;;;;;;;;17.70;74.60;;;;;;4936522;29;19926;-87
2023/04/06 12:29:20;;;;;;;;;;;17.70;74.60;;;;;;4928774;29;20619;-88
2023/04/06 12:31:47;;;;;;;;;;;17.70;75.10;;;;;;4942663;29;19922;-86
2023/04/06 12:34:14;;;;;;;;;;;17.80;75.10;;;;;;4942451;29;19973;-89
2023/04/06 12:36:41;;;;;;;;;;;17.80;75.10;;;;;;4945309;29;19933;-87
2023/04/06 12:39:08;;;;;;;;;;;17.80;75.20;;;;;;4942189;29;19958;-88
2023/04/06 12:41:35;;;;;;;;;;;17.90;75.50;;;;;;4962957;29;19954;-87
2023/04/06 12:44:03;;;;;;;;;;;17.90;75.40;;;;;;4943615;28;20500;-86
2023/04/06 12:46:31;;;;;;;;;;;18.00;76.40;;;;;;4958822;28;19936;-87
2023/04/06 12:48:58;;;;;;;;;;;18.10;75.90;;;;;;4925228;29;19923;-88
2023/04/06 12:51:25;;;;;;;;;;;18.00;75.80;;;;;;4949116;28;19938;-88
2023/04/06 12:53:52;;;;;;;;;;;17.90;75.70;;;;;;4956361;29;19945;-88
2023/04/06 12:56:20;;;;;;;;;;;18.00;76.20;;;;;;4962118;29;19942;-87
2023/04/06 12:58:51;;;;;;;;;;;17.90;75.80;;;;;;4958595;28;19933;-87
2023/04/06 13:01:21;;;;;;;;;;;17.70;74.90;;;;;;4945164;28;19949;-87
2023/04/06 13:03:48;;;;;;;;;;;17.50;74.70;;;;;;4950412;29;19979;-88
2023/04/06 13:06:15;;;;;;;;;;;17.30;74.90;;;;;;4948986;29;19922;-88
2023/04/06 13:08:42;;;;;;;;;;;17.20;75.00;;;;;;4949031;29;20010;-87
2023/04/06 13:11:09;;;;;;;;;;;16.90;74.70;;;;;;4952537;29;19922;-87
2023/04/06 13:13:36;;;;;;;;;;;16.70;75.30;;;;;;4966975;29;19938;-89
2023/04/06 13:16:03;;;;;;;;;;;16.50;75.70;;;;;;4952296;29;20553;-88
2023/04/06 13:18:35;;;;;;;;;;;16.40;76.30;;;;;;4936405;28;19923;-88
2023/04/06 13:21:01;;;;;;;;;;;16.60;76.60;;;;;;4946866;29;19945;-88
2023/04/06 13:23:28;;;;;;;;;;;16.60;76.60;;;;;;4943564;29;19929;-89
2023/04/06 13:26:00;;;;;;;;;;;16.60;76.60;;;;;;4961822;28;19953;-88
2023/04/06 13:28:27;;;;;;;;;;;16.50;76.80;;;;;;4947723;28;20388;-87
2023/04/06 13:30:53;;;;;;;;;;;16.50;77.20;;;;;;4953464;29;19946;-88
2023/04/06 13:33:20;;;;;;;;;;;16.40;77.90;;;;;;4956335;28;19933;-86
2023/04/06 13:35:48;;;;;;;;;;;16.50;79.20;;;;;;4941798;29;19929;-88
2023/04/06 13:38:15;;;;;;;;;;;16.50;78.20;;;;;;4953824;29;19927;-88
2023/04/06 13:40:45;;;;;;;;;;;16.40;78.50;;;;;;4936446;29;19929;-88
2023/04/06 13:43:12;;;;;;;;;;;16.50;79.10;;;;;;4950054;29;20025;-88
2023/04/06 13:45:39;;;;;;;;;;;16.30;79.40;;;;;;4958621;28;19928;-86
2023/04/06 13:48:06;;;;;;;;;;;16.20;80.20;;;;;;4940788;29;19954;-88
2023/04/06 13:50:33;;;;;;;;;;;16.20;81.20;;;;;;4941273;28;19926;-87
2023/04/06 13:53:01;;;;;;;;;;;16.10;81.90;;;;;;4948520;28;19932;-88
2023/04/06 13:55:29;;;;;;;;;;;16.00;82.40;;;;;;4941511;29;19936;-88
2023/04/06 13:57:56;;;;;;;;;;;16.00;83.00;;;;;;4936091;29;20424;-88
2023/04/06 14:00:40;;;;;;;;;;;15.80;84.00;;;;;;4941100;28;19922;-88
2023/04/06 14:03:19;;;;;;;;;;;15.60;84.60;;;;;;4958254;29;20459;-89
2023/04/06 14:05:46;;;;;;;;;;;15.30;86.20;;;;;;4940553;29;19930;-88
2023/04/06 14:08:20;;;;;;;;;;;15.20;86.90;;;;;;4958969;28;19922;-88
2023/04/06 14:10:47;;;;;;;;;;;15.40;88.50;;;;;;4969387;29;19982;-88
2023/04/06 14:13:20;;;;;;;;;;;15.00;89.70;;;;;;4957820;29;19926;-88
2023/04/06 14:15:47;;;;;;;;;;;14.30;90.40;;;;;;4963609;29;19969;-88
2023/04/06 14:18:21;;;;;;;;;;;14.70;91.50;;;;;;4973982;28;19910;-90
2023/04/06 14:21:24;;;;;;;;;;;14.70;91.50;;;;;;4959921;28;19917;-87
2023/04/06 14:24:07;;;;;;;;;;;14.80;91.70;;;;;;4947608;29;20383;-88
2023/04/06 14:30:20;;;;;;;;;;;14.00;91.50;;;;;;4961119;29;19940;-89
2023/04/06 14:33:12;;;;;;;;;;;15.20;92.10;;;;;;4973442;28;20497;-87
2023/04/06 14:35:39;;;;;;;;;;;15.20;92.20;;;;;;4942537;29;20666;-87
2023/04/06 14:38:06;;;;;;;;;;;15.30;92.30;;;;;;4920864;29;19929;-87